createdAt,value
2022-08-14T00:02:40.928Z,50.00
2022-08-14T00:06:25.897Z,49.90
2022-08-14T00:10:49.997Z,50.20
2022-08-14T00:14:17.458Z,50.40
2022-08-14T00:17:59.325Z,50.80
2022-08-14T00:21:41.157Z,51.50
2022-08-14T00:25:23.028Z,52.00
2022-08-14T00:29:04.876Z,51.10
2022-08-14T00:32:52.208Z,51.50
2022-08-14T00:36:48.260Z,51.50
2022-08-14T00:40:33.398Z,52.40
2022-08-14T00:44:27.563Z,51.80
2022-08-14T00:48:34.459Z,51.70
2022-08-14T00:52:18.592Z,52.00
2022-08-14T00:56:00.792Z,52.50
2022-08-14T00:59:49.217Z,53.00
2022-08-14T01:03:36.121Z,53.20
2022-08-14T01:07:21.322Z,53.10
2022-08-14T01:11:04.710Z,53.30
2022-08-14T01:14:46.673Z,53.90
2022-08-14T01:18:57.836Z,54.10
2022-08-14T01:22:45.991Z,54.70
2022-08-14T01:26:35.104Z,54.80
2022-08-14T01:30:25.964Z,54.60
2022-08-14T01:35:19.269Z,54.50
2022-08-14T01:38:13.144Z,54.80
2022-08-14T01:42:00.944Z,55.50
2022-08-14T01:45:48.984Z,55.50
2022-08-14T01:49:46.561Z,55.60
2022-08-14T01:53:45.670Z,55.30
2022-08-14T01:57:49.463Z,55.40
2022-08-14T02:01:31.269Z,55.60
2022-08-14T02:05:14.363Z,55.90
2022-08-14T02:08:56.979Z,56.40
2022-08-14T02:12:38.946Z,56.50
2022-08-14T02:16:26.350Z,56.50
2022-08-14T02:20:08.780Z,57.30
2022-08-14T02:23:53.732Z,57.00
2022-08-14T02:28:21.920Z,57.90
2022-08-14T02:31:43.916Z,57.40
2022-08-14T02:35:32.673Z,57.70
2022-08-14T02:39:16.244Z,57.70
2022-08-14T02:43:03.869Z,57.70
2022-08-14T02:46:49.669Z,57.70
2022-08-14T02:50:33.699Z,58.30
2022-08-14T02:54:19.638Z,57.60
2022-08-14T02:58:03.375Z,57.80
2022-08-14T03:01:51.175Z,57.80
2022-08-14T03:05:41.579Z,58.10
2022-08-14T03:09:24.204Z,58.50
2022-08-14T03:13:06.406Z,58.70
2022-08-14T03:17:01.309Z,58.70
2022-08-14T03:20:43.257Z,58.80
2022-08-14T03:24:28.313Z,59.10
2022-08-14T03:28:14.390Z,59.20
2022-08-14T03:32:11.251Z,59.50
2022-08-14T03:37:28.368Z,59.50
2022-08-14T03:39:55.612Z,59.20
2022-08-14T03:43:37.491Z,59.10
2022-08-14T03:47:20.874Z,59.60
2022-08-14T03:51:02.745Z,59.80
2022-08-14T03:54:52.631Z,59.80
2022-08-14T03:58:36.600Z,60.00
2022-08-14T04:02:32.901Z,60.10
2022-08-14T04:06:22.266Z,60.30
2022-08-14T04:10:10.355Z,60.60
2022-08-14T04:13:52.524Z,60.80
2022-08-14T04:17:34.383Z,60.90
2022-08-14T04:21:18.133Z,61.10
2022-08-14T04:25:04.924Z,61.10
2022-08-14T04:29:08.053Z,61.30
2022-08-14T04:32:57.475Z,61.60
2022-08-14T04:37:07.304Z,61.50
2022-08-14T04:41:08.622Z,57.00
2022-08-14T04:44:52.508Z,61.10
2022-08-14T04:48:43.497Z,61.70
2022-08-14T04:52:25.819Z,62.00
2022-08-14T04:56:30.043Z,62.10
2022-08-14T05:00:16.369Z,62.40
2022-08-14T05:04:00.414Z,62.20
2022-08-14T05:07:54.683Z,62.30
2022-08-14T05:11:44.259Z,62.50
2022-08-14T05:15:29.540Z,62.30
2022-08-14T05:19:24.964Z,62.50
2022-08-14T05:23:11.046Z,63.40
2022-08-14T05:26:53.471Z,63.00
2022-08-14T05:30:35.646Z,63.10
2022-08-14T05:34:17.660Z,63.00
2022-08-14T05:38:01.334Z,63.10
2022-08-14T05:41:54.284Z,63.00
2022-08-14T05:45:37.126Z,63.20
2022-08-14T05:49:18.958Z,63.30
2022-08-14T05:53:01.194Z,63.30
2022-08-14T05:56:43.367Z,63.60
2022-08-14T06:00:31.683Z,64.00
2022-08-14T06:04:18.905Z,64.80
2022-08-14T06:08:01.685Z,64.00
2022-08-14T06:11:50.340Z,64.30
2022-08-14T06:15:34.669Z,64.20
2022-08-14T06:19:19.159Z,64.20
2022-08-14T06:23:01.741Z,64.30
2022-08-14T06:26:43.995Z,64.10
2022-08-14T06:30:46.289Z,64.50
2022-08-14T06:35:11.246Z,64.50
2022-08-14T06:38:31.144Z,64.70
2022-08-14T06:42:32.257Z,64.70
2022-08-14T06:46:32.451Z,64.50
2022-08-14T06:50:21.802Z,64.80
2022-08-14T06:54:10.112Z,64.70
2022-08-14T06:57:52.577Z,64.80
2022-08-14T07:01:56.562Z,64.90
2022-08-14T07:05:55.247Z,64.70
2022-08-14T07:09:43.595Z,64.60
2022-08-14T07:13:32.878Z,63.30
2022-08-14T07:17:14.772Z,62.60
2022-08-14T07:21:00.562Z,61.60
2022-08-14T07:24:42.416Z,61.20
2022-08-14T07:28:29.962Z,61.00
2022-08-14T07:32:11.868Z,60.30
2022-08-14T07:36:26.703Z,60.00
2022-08-14T07:40:09.171Z,59.50
2022-08-14T07:43:55.779Z,58.80
2022-08-14T07:47:41.477Z,58.70
2022-08-14T07:51:23.923Z,58.90
2022-08-14T07:55:08.563Z,58.90
2022-08-14T07:58:51.744Z,59.00
2022-08-14T08:02:35.411Z,58.00
2022-08-14T08:06:22.567Z,58.60
2022-08-14T08:10:46.335Z,58.00
2022-08-14T08:14:31.196Z,57.50
2022-08-14T08:18:20.361Z,57.50
2022-08-14T08:22:09.234Z,57.30
2022-08-14T08:25:52.110Z,56.90
2022-08-14T08:29:35.972Z,56.20
2022-08-14T08:33:21.340Z,56.00
2022-08-14T08:37:07.311Z,56.00
2022-08-14T08:40:56.812Z,55.80
2022-08-14T08:44:41.980Z,55.00
2022-08-14T08:48:37.104Z,54.70
2022-08-14T08:52:25.165Z,53.60
2022-08-14T08:56:11.139Z,53.30
2022-08-14T09:00:25.711Z,53.20
2022-08-14T09:04:17.403Z,53.10
2022-08-14T09:08:33.340Z,53.10
2022-08-14T09:12:15.455Z,52.60
2022-08-14T09:15:58.046Z,52.50
2022-08-14T09:19:40.041Z,52.10
2022-08-14T09:23:27.460Z,52.20
2022-08-14T09:27:22.676Z,51.40
2022-08-14T09:31:08.601Z,51.90
2022-08-14T09:35:03.403Z,51.10
2022-08-14T09:38:53.801Z,51.20
2022-08-14T09:43:07.196Z,50.60
2022-08-14T09:46:56.702Z,50.30
2022-08-14T09:50:56.887Z,49.00
2022-08-14T09:54:48.022Z,49.20
2022-08-14T09:58:39.181Z,47.00
2022-08-14T10:02:31.242Z,44.40
2022-08-14T10:06:19.449Z,43.10
2022-08-14T10:10:03.701Z,40.00
2022-08-14T10:14:34.635Z,38.20
2022-08-14T10:18:19.296Z,39.80
2022-08-14T10:23:15.472Z,34.90
2022-08-14T10:26:22.839Z,33.30
2022-08-14T10:30:22.595Z,32.90
2022-08-14T10:34:14.181Z,32.50
2022-08-14T10:38:00.713Z,32.10
2022-08-14T10:41:48.689Z,30.70
2022-08-14T10:45:42.015Z,29.30
2022-08-14T10:49:28.594Z,29.10
2022-08-14T10:53:10.578Z,29.40
2022-08-14T10:56:55.448Z,27.70
2022-08-14T11:00:39.446Z,26.90
2022-08-14T11:04:30.867Z,26.30
2022-08-14T11:08:15.496Z,26.80
2022-08-14T11:12:40.245Z,25.90
2022-08-14T11:16:01.820Z,25.80
2022-08-14T11:19:51.476Z,25.80
2022-08-14T11:23:40.889Z,26.10
2022-08-14T11:27:33.120Z,25.70
2022-08-14T11:31:23.824Z,24.90
2022-08-14T11:35:06.618Z,25.50
2022-08-14T11:38:48.496Z,24.40
2022-08-14T11:42:58.520Z,23.70
2022-08-14T11:46:37.479Z,23.60
2022-08-14T11:50:24.987Z,23.00
2022-08-14T11:54:19.669Z,23.60
2022-08-14T11:58:08.844Z,23.20
2022-08-14T12:01:51.024Z,23.00
2022-08-14T12:05:39.761Z,22.10
2022-08-14T12:09:32.431Z,23.20
2022-08-14T12:13:19.277Z,23.20
2022-08-14T12:17:11.877Z,23.00
2022-08-14T12:20:59.966Z,22.20
2022-08-14T12:24:49.450Z,22.20
2022-08-14T12:28:34.051Z,22.00
2022-08-14T12:32:43.374Z,22.20
2022-08-14T12:36:30.702Z,25.90
2022-08-14T12:40:15.562Z,21.50
2022-08-14T12:44:08.475Z,21.50
2022-08-14T12:48:01.289Z,22.00
2022-08-14T12:52:04.396Z,22.80
2022-08-14T12:56:18.368Z,21.30
2022-08-14T13:00:29.220Z,21.30
2022-08-14T13:04:16.445Z,23.60
2022-08-14T13:08:00.603Z,21.70
2022-08-14T13:11:46.219Z,21.30
2022-08-14T13:15:28.415Z,21.30
2022-08-14T13:19:16.682Z,21.50
2022-08-14T13:22:59.694Z,21.50
2022-08-14T13:26:51.449Z,21.60
2022-08-14T13:30:36.397Z,21.40
2022-08-14T13:34:24.772Z,21.60
2022-08-14T13:38:07.507Z,21.10
2022-08-14T13:41:57.573Z,21.40
2022-08-14T13:46:00.341Z,21.50
2022-08-14T13:49:57.130Z,21.30
2022-08-14T13:54:07.157Z,21.10
2022-08-14T13:58:02.903Z,21.60
2022-08-14T14:01:46.849Z,21.10
2022-08-14T14:05:52.600Z,21.30
2022-08-14T14:09:50.981Z,21.40
2022-08-14T14:13:36.125Z,21.70
2022-08-14T14:17:18.695Z,22.20
2022-08-14T14:21:02.441Z,24.30
2022-08-14T14:24:46.349Z,23.60
2022-08-14T14:28:31.485Z,22.70
2022-08-14T14:32:17.349Z,24.40
2022-08-14T14:36:04.984Z,23.40
2022-08-14T14:40:53.700Z,22.80
2022-08-14T14:43:54.298Z,23.80
2022-08-14T14:47:36.877Z,23.00
2022-08-14T14:51:19.456Z,23.20
2022-08-14T14:55:03.610Z,23.40
2022-08-14T14:58:46.253Z,24.40
2022-08-14T15:02:36.984Z,24.80
2022-08-14T15:06:19.480Z,24.40
2022-08-14T15:10:01.459Z,24.00
2022-08-14T15:13:53.184Z,24.50
2022-08-14T15:17:41.538Z,25.10
2022-08-14T15:21:24.411Z,24.60
2022-08-14T15:25:09.459Z,24.30
2022-08-14T15:29:02.764Z,24.60
2022-08-14T15:32:46.856Z,23.70
2022-08-14T15:36:29.864Z,24.50
2022-08-14T15:40:16.265Z,24.80
2022-08-14T15:44:04.769Z,24.00
2022-08-14T15:48:02.260Z,24.60
2022-08-14T15:51:45.899Z,24.20
2022-08-14T15:55:30.432Z,24.00
2022-08-14T15:59:13.228Z,24.10
2022-08-14T16:03:00.563Z,24.30
2022-08-14T16:06:42.420Z,23.90
2022-08-14T16:10:30.033Z,24.40
2022-08-14T16:14:12.508Z,24.30
2022-08-14T16:17:55.141Z,24.00
2022-08-14T16:21:39.641Z,24.00
2022-08-14T16:25:34.872Z,23.90
2022-08-14T16:29:17.639Z,24.80
2022-08-14T16:33:01.326Z,24.40
2022-08-14T16:36:50.855Z,25.00
2022-08-14T16:40:33.742Z,25.40
2022-08-14T16:44:37.944Z,25.50
2022-08-14T16:48:54.990Z,25.60
2022-08-14T16:52:44.812Z,25.70
2022-08-14T16:56:36.285Z,26.00
2022-08-14T17:00:29.337Z,26.40
2022-08-14T17:04:24.399Z,26.10
2022-08-14T17:08:31.781Z,26.50
2022-08-14T17:12:28.409Z,26.70
2022-08-14T17:16:25.365Z,27.30
2022-08-14T17:20:54.542Z,26.40
2022-08-14T17:24:58.510Z,27.10
2022-08-14T17:28:51.569Z,27.10
2022-08-14T17:32:55.713Z,27.10
2022-08-14T17:36:35.514Z,27.90
2022-08-14T17:40:20.857Z,28.10
2022-08-14T17:44:34.218Z,28.10
2022-08-14T17:49:13.763Z,27.70
2022-08-14T17:52:41.459Z,28.30
2022-08-14T17:56:26.603Z,28.30
2022-08-14T18:00:16.569Z,28.00
2022-08-14T18:04:05.354Z,28.80
2022-08-14T18:07:50.661Z,28.70
2022-08-14T18:11:50.853Z,29.00
2022-08-14T18:15:37.115Z,29.10
2022-08-14T18:19:22.025Z,29.30
2022-08-14T18:23:06.070Z,29.20
2022-08-14T18:26:50.080Z,29.30
2022-08-14T18:30:58.830Z,29.10
2022-08-14T18:34:50.996Z,29.50
2022-08-14T18:38:42.866Z,29.10
2022-08-14T18:42:30.352Z,29.10
2022-08-14T18:46:59.926Z,29.90
2022-08-14T18:50:27.495Z,29.80
2022-08-14T18:54:32.786Z,29.40
2022-08-14T18:58:27.429Z,29.70
2022-08-14T19:02:30.548Z,30.60
2022-08-14T19:06:16.505Z,30.30
2022-08-14T19:10:05.942Z,31.10
2022-08-14T19:13:51.518Z,31.50
2022-08-14T19:18:14.138Z,33.10
2022-08-14T19:21:55.827Z,32.40
2022-08-14T19:25:48.223Z,32.50
2022-08-14T19:29:38.000Z,32.20
2022-08-14T19:33:48.875Z,32.40
2022-08-14T19:37:52.374Z,31.20
2022-08-14T19:41:37.860Z,31.60
2022-08-14T19:45:23.659Z,32.10
2022-08-14T19:49:06.490Z,32.30
2022-08-14T19:52:48.394Z,32.50
2022-08-14T19:56:35.512Z,33.20
2022-08-14T20:00:28.083Z,33.40
2022-08-14T20:04:46.726Z,33.40
2022-08-14T20:10:59.682Z,33.80
2022-08-14T20:12:29.034Z,34.30
2022-08-14T20:16:21.213Z,35.30
2022-08-14T20:20:31.991Z,36.10
2022-08-14T20:24:30.791Z,35.10
2022-08-14T20:28:28.827Z,35.50
2022-08-14T20:32:14.750Z,35.40
2022-08-14T20:35:56.781Z,35.90
2022-08-14T20:39:54.285Z,36.20
2022-08-14T20:43:58.598Z,36.20
2022-08-14T20:47:55.001Z,36.70
2022-08-14T20:51:54.557Z,36.20
2022-08-14T20:55:45.425Z,36.30
2022-08-14T20:59:29.597Z,37.50
2022-08-14T21:03:57.444Z,37.60
2022-08-14T21:07:40.136Z,36.60
2022-08-14T21:11:26.026Z,38.20
2022-08-14T21:15:11.364Z,38.90
2022-08-14T21:19:00.148Z,39.40
2022-08-14T21:22:44.686Z,39.30
2022-08-14T21:26:33.243Z,39.40
2022-08-14T21:30:52.010Z,39.20
2022-08-14T21:34:34.559Z,40.00
2022-08-14T21:38:18.466Z,39.70
2022-08-14T21:42:00.619Z,40.80
2022-08-14T21:45:53.031Z,40.30
2022-08-14T21:49:39.114Z,40.50
2022-08-14T21:53:25.058Z,41.60
2022-08-14T21:57:15.500Z,40.80
2022-08-14T22:00:57.500Z,40.90
2022-08-14T22:04:41.537Z,41.30
2022-08-14T22:08:26.549Z,41.10
2022-08-14T22:12:10.696Z,41.30
2022-08-14T22:15:59.652Z,41.70
2022-08-14T22:19:54.403Z,41.80
2022-08-14T22:23:37.222Z,41.30
2022-08-14T22:27:21.317Z,41.60
2022-08-14T22:31:11.175Z,41.60
2022-08-14T22:35:00.126Z,41.50
2022-08-14T22:38:49.932Z,41.90
2022-08-14T22:42:35.553Z,41.90
2022-08-14T22:46:20.236Z,41.50
2022-08-14T22:50:30.757Z,41.40
2022-08-14T22:54:05.017Z,42.00
2022-08-14T22:57:46.862Z,41.50
2022-08-14T23:01:56.468Z,41.80
2022-08-14T23:05:54.476Z,40.50
2022-08-14T23:09:38.201Z,42.10
2022-08-14T23:13:22.411Z,41.90
2022-08-14T23:17:06.277Z,42.20
2022-08-14T23:20:54.097Z,42.30
2022-08-14T23:24:41.596Z,41.90
2022-08-14T23:28:33.940Z,42.70
2022-08-14T23:32:30.298Z,42.70
2022-08-14T23:36:31.964Z,43.10
2022-08-14T23:40:26.513Z,44.60
2022-08-14T23:44:12.651Z,45.90
2022-08-14T23:47:54.581Z,46.30
2022-08-14T23:51:38.668Z,45.90
2022-08-14T23:55:21.543Z,44.60
2022-08-14T23:59:04.203Z,44.60
